createdAt,value
2023-02-01T06:40:55.711Z,-0.02
2023-02-01T06:43:24.888Z,0.00
2023-02-01T06:45:53.308Z,0.00
2023-02-01T06:48:37.480Z,0.10
2023-02-01T06:51:06.145Z,0.20
2023-02-01T06:53:34.369Z,0.20
2023-02-01T06:56:03.634Z,0.20
2023-02-01T06:58:33.164Z,0.20
2023-02-01T07:01:08.589Z,0.24
2023-02-01T07:03:37.100Z,0.30
2023-02-01T07:06:05.710Z,0.30
2023-02-01T07:08:35.143Z,0.30
2023-02-01T07:11:08.379Z,0.36
2023-02-01T07:13:36.833Z,0.32
2023-02-01T07:16:07.022Z,0.38
2023-02-01T07:18:35.227Z,0.40
2023-02-01T07:21:03.552Z,0.50
2023-02-01T07:23:31.810Z,0.50
2023-02-01T07:26:01.871Z,0.50
2023-02-01T07:28:31.549Z,0.50
2023-02-01T07:31:13.112Z,0.50
2023-02-01T07:33:41.242Z,0.40
2023-02-01T07:36:15.322Z,0.40
2023-02-01T07:38:43.682Z,0.50
2023-02-01T07:41:12.344Z,0.60
2023-02-01T07:43:41.062Z,0.60
2023-02-01T07:46:09.230Z,0.60
2023-02-01T07:48:37.401Z,0.56
2023-02-01T07:51:10.127Z,0.60
2023-02-01T07:53:38.436Z,0.68
2023-02-01T07:56:14.551Z,0.70
2023-02-01T07:58:43.334Z,0.70
2023-02-01T08:01:22.293Z,0.70
2023-02-01T08:03:52.062Z,0.78
2023-02-01T08:06:20.949Z,0.90
2023-02-01T08:08:50.395Z,0.90
2023-02-01T08:11:19.572Z,0.90
2023-02-01T08:13:48.024Z,1.00
2023-02-01T08:16:17.474Z,1.00
2023-02-01T08:18:46.212Z,1.04
2023-02-01T08:21:19.658Z,1.10
2023-02-01T08:23:48.136Z,1.20
2023-02-01T08:26:20.400Z,1.20
2023-02-01T08:28:54.516Z,1.30
2023-02-01T08:31:24.236Z,1.40
2023-02-01T08:33:54.626Z,1.50
2023-02-01T08:36:23.898Z,1.54
2023-02-01T08:38:52.570Z,1.70
2023-02-01T08:41:24.014Z,1.72
2023-02-01T08:43:53.989Z,1.80
2023-02-01T08:46:22.894Z,1.82
2023-02-01T08:48:53.735Z,1.80
2023-02-01T08:51:23.252Z,1.80
2023-02-01T08:53:51.699Z,1.80
2023-02-01T08:56:40.830Z,1.80
2023-02-01T08:59:42.513Z,1.90
2023-02-01T09:03:23.303Z,1.90
2023-02-01T09:07:10.492Z,2.10
2023-02-01T09:09:39.596Z,2.10
2023-02-01T09:12:08.103Z,2.00
2023-02-01T09:14:36.480Z,2.18
2023-02-01T09:17:21.380Z,2.20
2023-02-01T09:23:18.814Z,2.30
2023-02-01T09:25:51.456Z,2.30
2023-02-01T09:28:19.937Z,2.30
2023-02-01T09:30:48.438Z,2.30
2023-02-01T09:37:36.371Z,2.40
2023-02-01T09:40:36.794Z,2.40
2023-02-01T09:43:48.356Z,2.58
2023-02-01T09:46:26.112Z,2.60
2023-02-01T09:49:21.691Z,2.60
2023-02-01T09:51:51.207Z,2.62
2023-02-01T09:54:21.078Z,2.70
2023-02-01T09:57:02.046Z,2.80
2023-02-01T10:00:02.078Z,2.90
2023-02-01T10:02:41.123Z,3.00
2023-02-01T10:05:16.355Z,3.10
2023-02-01T10:07:55.461Z,3.20
2023-02-01T10:10:41.731Z,3.28
2023-02-01T10:13:51.524Z,3.20
2023-02-01T10:16:25.991Z,3.20
2023-02-01T10:19:39.478Z,3.04
2023-02-01T10:22:11.225Z,3.02
2023-02-01T10:24:50.324Z,3.00
2023-02-01T10:27:21.425Z,3.00
2023-02-01T10:30:23.042Z,2.94
2023-02-01T10:32:58.203Z,3.00
2023-02-01T10:35:31.164Z,3.10
2023-02-01T10:38:02.736Z,3.10
2023-02-01T10:40:30.710Z,3.00
2023-02-01T10:43:00.243Z,3.06
2023-02-01T10:45:32.165Z,3.10
2023-02-01T10:48:01.052Z,3.20
2023-02-01T10:50:36.056Z,3.20
2023-02-01T10:53:07.650Z,3.20
2023-02-01T10:56:07.053Z,3.20
2023-02-01T10:58:37.555Z,3.20
2023-02-01T11:01:09.324Z,3.30
2023-02-01T11:03:57.109Z,3.40
2023-02-01T11:06:34.866Z,3.44
2023-02-01T11:09:15.733Z,3.50
2023-02-01T11:11:49.793Z,3.50
2023-02-01T11:14:19.873Z,3.50
2023-02-01T11:17:12.098Z,3.60
2023-02-01T11:19:41.111Z,3.60
2023-02-01T11:22:10.418Z,3.60
2023-02-01T11:24:40.161Z,3.56
2023-02-01T11:27:22.048Z,3.62
2023-02-01T11:29:57.316Z,3.60
2023-02-01T11:32:25.832Z,3.60
2023-02-01T11:35:05.093Z,3.50
2023-02-01T11:37:38.175Z,3.50
2023-02-01T11:40:28.999Z,3.56
2023-02-01T11:43:08.299Z,3.56
2023-02-01T11:45:38.516Z,3.60
2023-02-01T11:48:14.989Z,3.50
2023-02-01T11:50:52.324Z,3.50
2023-02-01T11:53:25.021Z,3.50
2023-02-01T11:56:19.469Z,3.60
2023-02-01T11:59:03.742Z,3.60
2023-02-01T12:01:47.904Z,3.62
2023-02-01T12:04:42.829Z,3.70
2023-02-01T12:07:15.854Z,3.70
2023-02-01T12:10:05.589Z,3.74
2023-02-01T12:12:51.996Z,3.84
2023-02-01T12:15:48.345Z,3.90
2023-02-01T12:18:28.666Z,4.00
2023-02-01T12:21:07.299Z,4.04
2023-02-01T12:23:42.167Z,4.00
2023-02-01T12:26:29.079Z,4.10
2023-02-01T12:29:15.527Z,4.10
2023-02-01T12:31:55.712Z,4.20
2023-02-01T12:34:49.946Z,4.10
2023-02-01T12:37:45.509Z,4.10
2023-02-01T12:40:13.677Z,4.10
2023-02-01T12:42:44.983Z,4.00
2023-02-01T12:45:29.028Z,4.10
2023-02-01T12:48:07.654Z,4.10
2023-02-01T12:50:49.082Z,4.10
2023-02-01T12:53:31.918Z,4.00
2023-02-01T12:56:08.165Z,3.92
2023-02-01T12:58:53.539Z,3.90
2023-02-01T13:01:44.976Z,3.90
2023-02-01T13:04:21.172Z,4.00
2023-02-01T13:06:55.528Z,4.00
2023-02-01T13:09:46.843Z,4.00
2023-02-01T13:12:22.486Z,3.90
2023-02-01T13:14:55.987Z,3.90
2023-02-01T13:17:26.213Z,3.90
2023-02-01T13:20:18.451Z,4.00
2023-02-01T13:23:00.764Z,3.90
2023-02-01T13:25:51.570Z,3.90
2023-02-01T13:28:19.731Z,3.90
2023-02-01T13:31:19.148Z,3.90
2023-02-01T13:34:24.504Z,3.90
2023-02-01T13:37:19.047Z,4.00
2023-02-01T13:40:05.479Z,4.10
2023-02-01T13:42:45.320Z,4.10
2023-02-01T13:45:18.872Z,4.20
2023-02-01T13:47:48.502Z,4.14
2023-02-01T13:50:26.122Z,4.10
2023-02-01T13:53:02.043Z,4.10
2023-02-01T13:55:37.230Z,4.10
2023-02-01T13:58:35.725Z,4.04
2023-02-01T14:01:22.077Z,4.00
2023-02-01T14:04:06.701Z,4.00
2023-02-01T14:06:41.064Z,3.94
2023-02-01T14:09:09.293Z,3.92
2023-02-01T14:11:51.462Z,3.90
2023-02-01T14:14:19.529Z,3.84
2023-02-01T14:16:53.412Z,3.88
2023-02-01T14:19:26.023Z,3.90
2023-02-01T14:22:01.668Z,3.80
2023-02-01T14:24:35.984Z,3.80
2023-02-01T14:27:17.367Z,3.72
2023-02-01T14:29:53.270Z,3.70
2023-02-01T14:32:22.799Z,3.70
2023-02-01T14:34:57.266Z,3.70
2023-02-01T14:37:27.135Z,3.60
2023-02-01T14:40:26.399Z,3.54
2023-02-01T14:42:54.988Z,3.50
2023-02-01T14:45:23.900Z,3.50
2023-02-01T14:47:55.486Z,3.50
2023-02-01T14:50:23.586Z,3.50
2023-02-01T14:53:09.975Z,3.50
2023-02-01T14:56:02.656Z,3.40
2023-02-01T14:58:37.714Z,3.24
2023-02-01T15:01:07.013Z,3.20
2023-02-01T15:03:46.982Z,3.06
2023-02-01T15:06:29.079Z,2.90
2023-02-01T15:09:17.945Z,2.86
2023-02-01T15:12:13.486Z,2.70
2023-02-01T15:14:49.945Z,2.64
2023-02-01T15:17:24.339Z,2.60
2023-02-01T15:19:56.429Z,2.60
2023-02-01T15:22:24.600Z,2.60
2023-02-01T15:24:59.738Z,2.60
2023-02-01T15:27:28.969Z,2.58
2023-02-01T15:30:09.967Z,2.60
2023-02-01T15:32:39.734Z,2.50
2023-02-01T15:35:47.204Z,2.50
2023-02-01T15:38:33.310Z,2.50
2023-02-01T15:41:19.865Z,2.50
2023-02-01T15:43:56.880Z,2.50
2023-02-01T15:46:34.815Z,2.50
2023-02-01T15:49:03.818Z,2.50
2023-02-01T15:51:33.844Z,2.50
2023-02-01T15:54:08.434Z,2.60
2023-02-01T15:56:42.137Z,2.50
2023-02-01T15:59:20.795Z,2.50
2023-02-01T16:01:49.233Z,2.50
2023-02-01T16:04:19.125Z,2.50
2023-02-01T16:06:49.147Z,2.50
2023-02-01T16:09:19.062Z,2.50
2023-02-01T16:12:03.058Z,2.54
2023-02-01T16:14:31.052Z,2.54
2023-02-01T16:16:59.547Z,2.50
2023-02-01T16:19:29.501Z,2.60
2023-02-01T16:22:00.355Z,2.70
2023-02-01T16:24:28.904Z,2.70
2023-02-01T16:26:57.150Z,2.70
2023-02-01T16:29:25.343Z,2.50
2023-02-01T16:31:53.474Z,2.50
2023-02-01T16:34:21.989Z,2.30
2023-02-01T16:36:54.686Z,2.20
2023-02-01T16:39:22.773Z,2.10
2023-02-01T16:41:51.434Z,2.10
2023-02-01T16:44:23.037Z,2.00
2023-02-01T16:46:51.196Z,2.00
2023-02-01T16:49:24.372Z,2.06
2023-02-01T16:51:56.465Z,2.10
2023-02-01T16:54:25.008Z,2.10
2023-02-01T16:56:53.250Z,2.20
2023-02-01T16:59:21.524Z,2.20
2023-02-01T17:01:49.458Z,2.18
2023-02-01T17:04:18.548Z,2.16
2023-02-01T17:06:48.412Z,2.10
2023-02-01T17:09:16.641Z,2.20
2023-02-01T17:11:44.876Z,2.12
2023-02-01T17:14:18.234Z,2.10
2023-02-01T17:16:47.644Z,2.10
2023-02-01T17:19:18.326Z,2.10
2023-02-01T17:21:49.873Z,2.18
2023-02-01T17:24:19.188Z,2.20
2023-02-01T17:26:47.333Z,2.26
2023-02-01T17:29:15.397Z,2.20
2023-02-01T17:31:45.328Z,2.20
2023-02-01T17:34:15.801Z,2.20
2023-02-01T17:36:44.215Z,2.30
2023-02-01T17:39:32.167Z,2.24
2023-02-01T17:42:00.742Z,2.20
2023-02-01T17:44:28.798Z,2.30
2023-02-01T17:46:58.721Z,2.40
2023-02-01T17:49:29.006Z,2.32
2023-02-01T17:51:57.828Z,2.38
2023-02-01T17:54:26.548Z,2.50
2023-02-01T17:56:54.825Z,2.60
2023-02-01T17:59:27.091Z,2.70
2023-02-01T18:02:00.934Z,2.80
2023-02-01T18:04:29.231Z,2.74
2023-02-01T18:07:27.044Z,2.70
2023-02-01T18:09:56.718Z,2.72
2023-02-01T18:12:26.660Z,2.72
2023-02-01T18:14:54.783Z,2.60
2023-02-01T18:17:22.878Z,2.50
2023-02-01T18:19:51.091Z,2.40
2023-02-01T18:22:20.179Z,2.40
2023-02-01T18:24:48.543Z,2.40
2023-02-01T18:27:19.108Z,2.38
2023-02-01T18:29:47.200Z,2.30
2023-02-01T18:32:15.532Z,2.30
2023-02-01T18:34:43.746Z,2.20
2023-02-01T18:37:11.861Z,2.12
2023-02-01T18:39:40.243Z,2.14
2023-02-01T18:42:11.210Z,2.10
2023-02-01T18:44:39.189Z,2.20
2023-02-01T18:47:07.716Z,2.20
2023-02-01T18:49:37.499Z,2.20
2023-02-01T18:52:06.827Z,2.20
2023-02-01T18:54:34.981Z,2.20
2023-02-01T18:57:03.536Z,2.30
2023-02-01T18:59:31.665Z,2.20
2023-02-01T19:01:59.679Z,2.20
2023-02-01T19:04:27.671Z,2.20
2023-02-01T19:06:55.610Z,2.20
2023-02-01T19:09:23.563Z,2.30
2023-02-01T19:11:51.763Z,2.28
2023-02-01T19:14:19.843Z,2.30
2023-02-01T19:16:50.617Z,2.24
2023-02-01T19:19:18.932Z,2.28
2023-02-01T19:21:47.063Z,2.30
2023-02-01T19:24:15.039Z,2.30
2023-02-01T19:26:43.771Z,2.32
2023-02-01T19:29:12.003Z,2.38
2023-02-01T19:31:40.306Z,2.38
2023-02-01T19:34:11.416Z,2.40
2023-02-01T19:36:42.640Z,2.30
2023-02-01T19:39:10.929Z,2.46
2023-02-01T19:41:40.229Z,2.44
2023-02-01T19:44:08.646Z,2.50
2023-02-01T19:46:36.825Z,2.50
2023-02-01T19:49:05.569Z,2.50
2023-02-01T19:51:34.558Z,2.40
2023-02-01T19:54:02.733Z,2.40
2023-02-01T19:56:30.787Z,2.30
2023-02-01T19:58:59.027Z,2.30
2023-02-01T20:01:29.607Z,2.28
2023-02-01T20:04:06.029Z,2.30
2023-02-01T20:06:37.795Z,2.30
2023-02-01T20:09:05.958Z,2.30
2023-02-01T20:11:34.204Z,2.40
2023-02-01T20:14:02.451Z,2.40
2023-02-01T20:16:30.604Z,2.40
2023-02-01T20:18:58.551Z,2.42
2023-02-01T20:21:27.261Z,2.50
2023-02-01T20:23:55.532Z,2.50
2023-02-01T20:26:25.550Z,2.50
2023-02-01T20:28:54.991Z,2.50
2023-02-01T20:31:25.233Z,2.58
2023-02-01T20:33:53.494Z,2.56
2023-02-01T20:36:21.616Z,2.50
2023-02-01T20:38:49.638Z,2.50
2023-02-01T20:41:18.015Z,2.50
2023-02-01T20:43:46.398Z,2.50
2023-02-01T20:46:14.636Z,2.50
2023-02-01T20:48:46.788Z,2.50
2023-02-01T20:51:15.997Z,2.50
2023-02-01T20:53:43.978Z,2.50
2023-02-01T20:56:13.032Z,2.58
2023-02-01T20:58:41.388Z,2.60
2023-02-01T21:01:09.621Z,2.60
2023-02-01T21:03:38.043Z,2.60
2023-02-01T21:06:06.933Z,2.60
2023-02-01T21:08:34.963Z,2.60
2023-02-01T21:11:08.227Z,2.62
2023-02-01T21:13:44.180Z,2.70
2023-02-01T21:16:13.662Z,2.80
2023-02-01T21:18:41.655Z,2.72
2023-02-01T21:21:11.919Z,2.70
2023-02-01T21:23:45.111Z,2.70
2023-02-01T21:26:17.995Z,2.70
2023-02-01T21:28:46.073Z,2.70
2023-02-01T21:31:17.170Z,2.60
2023-02-01T21:33:47.085Z,2.60
2023-02-01T21:36:19.540Z,2.60
2023-02-01T21:38:50.164Z,2.50
2023-02-01T21:41:42.020Z,2.50
2023-02-01T21:44:10.259Z,2.50
2023-02-01T21:46:38.333Z,2.50
2023-02-01T21:49:07.483Z,2.50
2023-02-01T21:51:37.992Z,2.50
2023-02-01T21:54:09.811Z,2.50
2023-02-01T21:56:38.140Z,2.40
2023-02-01T21:59:06.982Z,2.50
2023-02-01T22:01:35.061Z,2.50
2023-02-01T22:04:03.572Z,2.40
2023-02-01T22:06:37.146Z,2.40
2023-02-01T22:09:05.462Z,2.50
2023-02-01T22:11:33.994Z,2.50
2023-02-01T22:14:02.379Z,2.50
2023-02-01T22:16:31.688Z,2.50
2023-02-01T22:19:20.523Z,2.54
2023-02-01T22:21:48.903Z,2.52
2023-02-01T22:24:18.148Z,2.56
2023-02-01T22:26:46.316Z,2.60
2023-02-01T22:29:15.066Z,2.60
2023-02-01T22:31:43.215Z,2.60
2023-02-01T22:34:11.880Z,2.62
2023-02-01T22:36:40.228Z,2.70
2023-02-01T22:39:08.677Z,2.90
2023-02-01T22:41:36.846Z,2.90
2023-02-01T22:44:05.431Z,2.90
2023-02-01T22:46:33.603Z,3.00
2023-02-01T22:49:01.990Z,3.00
2023-02-01T22:51:31.590Z,3.00
2023-02-01T22:54:02.314Z,3.10
2023-02-01T22:56:37.294Z,3.10
2023-02-01T22:59:06.895Z,3.10
2023-02-01T23:01:35.023Z,3.10
2023-02-01T23:04:05.351Z,3.10
2023-02-01T23:06:33.813Z,3.10
2023-02-01T23:09:13.863Z,3.10
2023-02-01T23:11:42.331Z,3.00
2023-02-01T23:14:10.923Z,2.96
2023-02-01T23:16:39.310Z,2.90
2023-02-01T23:19:07.472Z,2.90
2023-02-01T23:21:35.455Z,2.70
2023-02-01T23:24:04.840Z,2.70
2023-02-01T23:26:33.109Z,2.60
2023-02-01T23:29:01.407Z,2.70
2023-02-01T23:31:30.855Z,2.70
2023-02-01T23:34:00.116Z,2.80
2023-02-01T23:36:28.713Z,2.82
2023-02-01T23:38:57.496Z,2.90
2023-02-01T23:41:27.693Z,2.90
2023-02-01T23:43:58.528Z,3.00
2023-02-01T23:46:37.947Z,3.00
2023-02-01T23:49:07.195Z,3.06
2023-02-01T23:51:35.112Z,3.06
2023-02-01T23:54:03.197Z,3.10
2023-02-01T23:56:33.962Z,3.12
2023-02-01T23:59:03.791Z,3.10
